sensor_id;sensor_type;location;lat;lon;timestamp;pressure;altitude;pressure_sealevel;temperature;humidity
45040;BME280;30778;53.574;7.770;2023-03-11T00:00:32;100153.94;;;-1.74;50.55
45040;BME280;30778;53.574;7.770;2023-03-11T00:02:59;100158.19;;;-1.67;50.21
45040;BME280;30778;53.574;7.770;2023-03-11T00:05:32;100152.25;;;-1.91;50.63
45040;BME280;30778;53.574;7.770;2023-03-11T00:07:58;100160.78;;;-1.80;50.37
45040;BME280;30778;53.574;7.770;2023-03-11T00:10:30;100174.38;;;-2.21;51.06
45040;BME280;30778;53.574;7.770;2023-03-11T00:12:57;100176.09;;;-2.26;51.23
45040;BME280;30778;53.574;7.770;2023-03-11T00:15:22;100183.81;;;-2.07;51.50
45040;BME280;30778;53.574;7.770;2023-03-11T00:17:49;100173.56;;;-1.83;51.10
45040;BME280;30778;53.574;7.770;2023-03-11T00:20:22;100188.94;;;-1.90;51.03
45040;BME280;30778;53.574;7.770;2023-03-11T00:22:48;100203.47;;;-1.78;50.86
45040;BME280;30778;53.574;7.770;2023-03-11T00:25:16;100213.69;;;-2.06;50.97
45040;BME280;30778;53.574;7.770;2023-03-11T00:27:42;100219.69;;;-1.80;50.40
45040;BME280;30778;53.574;7.770;2023-03-11T00:30:09;100209.44;;;-1.73;49.88
45040;BME280;30778;53.574;7.770;2023-03-11T00:32:34;100212.84;;;-1.91;49.70
45040;BME280;30778;53.574;7.770;2023-03-11T00:35:00;100227.38;;;-1.69;49.66
45040;BME280;30778;53.574;7.770;2023-03-11T00:37:25;100236.75;;;-1.88;50.13
45040;BME280;30778;53.574;7.770;2023-03-11T00:39:51;100250.41;;;-1.96;50.43
45040;BME280;30778;53.574;7.770;2023-03-11T00:42:17;100242.72;;;-1.93;49.85
45040;BME280;30778;53.574;7.770;2023-03-11T00:44:42;100239.31;;;-1.97;49.86
45040;BME280;30778;53.574;7.770;2023-03-11T00:47:09;100252.09;;;-2.11;49.83
45040;BME280;30778;53.574;7.770;2023-03-11T00:49:35;100260.69;;;-1.86;49.42
45040;BME280;30778;53.574;7.770;2023-03-11T00:52:01;100259.78;;;-2.03;50.43
45040;BME280;30778;53.574;7.770;2023-03-11T00:54:27;100261.53;;;-1.93;50.47
45040;BME280;30778;53.574;7.770;2023-03-11T00:56:52;100268.31;;;-2.06;51.26
45040;BME280;30778;53.574;7.770;2023-03-11T00:59:18;100270.91;;;-1.92;50.82
45040;BME280;30778;53.574;7.770;2023-03-11T01:01:43;100265.81;;;-1.67;50.33
45040;BME280;30778;53.574;7.770;2023-03-11T01:04:09;100275.16;;;-2.06;50.89
45040;BME280;30778;53.574;7.770;2023-03-11T01:06:34;100278.66;;;-1.64;50.05
45040;BME280;30778;53.574;7.770;2023-03-11T01:09:00;100274.38;;;-1.54;49.42
45040;BME280;30778;53.574;7.770;2023-03-11T01:11:25;100282.94;;;-1.51;48.90
45040;BME280;30778;53.574;7.770;2023-03-11T01:13:51;100283.75;;;-1.67;48.56
45040;BME280;30778;53.574;7.770;2023-03-11T01:16:16;100287.19;;;-1.53;48.07
45040;BME280;30778;53.574;7.770;2023-03-11T01:18:41;100302.50;;;-2.02;48.40
45040;BME280;30778;53.574;7.770;2023-03-11T01:21:07;100301.69;;;-1.67;47.96
45040;BME280;30778;53.574;7.770;2023-03-11T01:23:32;100305.97;;;-1.75;48.36
45040;BME280;30778;53.574;7.770;2023-03-11T01:25:58;100303.41;;;-1.68;48.55
45040;BME280;30778;53.574;7.770;2023-03-11T01:28:25;100312.78;;;-1.74;48.75
45040;BME280;30778;53.574;7.770;2023-03-11T01:30:50;100312.75;;;-1.87;49.30
45040;BME280;30778;53.574;7.770;2023-03-11T01:33:18;100311.09;;;-1.68;48.72
45040;BME280;30778;53.574;7.770;2023-03-11T01:35:44;100319.63;;;-1.56;48.59
45040;BME280;30778;53.574;7.770;2023-03-11T01:38:10;100319.59;;;-1.69;49.01
45040;BME280;30778;53.574;7.770;2023-03-11T01:40:45;100337.59;;;-1.46;48.83
45040;BME280;30778;53.574;7.770;2023-03-11T01:43:39;100328.13;;;-1.84;49.14
45040;BME280;30778;53.574;7.770;2023-03-11T01:46:14;100347.00;;;-1.42;48.88
45040;BME280;30778;53.574;7.770;2023-03-11T01:48:53;100338.47;;;-1.25;48.57
45040;BME280;30778;53.574;7.770;2023-03-11T01:51:32;100345.28;;;-1.52;49.05
45040;BME280;30778;53.574;7.770;2023-03-11T01:54:04;100346.13;;;-1.42;48.91
45040;BME280;30778;53.574;7.770;2023-03-11T01:56:30;100352.94;;;-1.58;48.89
45040;BME280;30778;53.574;7.770;2023-03-11T01:58:57;100354.66;;;-1.62;49.02
45040;BME280;30778;53.574;7.770;2023-03-11T02:01:24;100358.06;;;-1.63;49.20
45040;BME280;30778;53.574;7.770;2023-03-11T02:03:49;100360.69;;;-1.36;48.23
45040;BME280;30778;53.574;7.770;2023-03-11T02:06:18;100372.59;;;-1.59;49.25
45040;BME280;30778;53.574;7.770;2023-03-11T02:08:45;100374.28;;;-1.62;49.57
45040;BME280;30778;53.574;7.770;2023-03-11T02:11:20;100367.44;;;-1.72;50.56
45040;BME280;30778;53.574;7.770;2023-03-11T02:13:48;100371.69;;;-1.85;50.65
45040;BME280;30778;53.574;7.770;2023-03-11T02:16:13;100375.16;;;-1.65;50.02
45040;BME280;30778;53.574;7.770;2023-03-11T02:18:40;100379.44;;;-1.59;49.62
45040;BME280;30778;53.574;7.770;2023-03-11T02:21:08;100379.50;;;-1.28;49.21
45040;BME280;30778;53.574;7.770;2023-03-11T02:23:49;100385.41;;;-1.62;49.39
45040;BME280;30778;53.574;7.770;2023-03-11T02:26:23;100375.19;;;-1.48;49.07
45040;BME280;30778;53.574;7.770;2023-03-11T02:28:53;100387.91;;;-1.78;49.44
45040;BME280;30778;53.574;7.770;2023-03-11T02:31:20;100386.22;;;-1.78;49.08
45040;BME280;30778;53.574;7.770;2023-03-11T02:33:49;100374.25;;;-1.81;48.90
45040;BME280;30778;53.574;7.770;2023-03-11T02:36:39;100387.13;;;-1.61;47.55
45040;BME280;30778;53.574;7.770;2023-03-11T02:39:08;100395.66;;;-1.60;47.47
45040;BME280;30778;53.574;7.770;2023-03-11T02:41:38;100398.19;;;-1.75;47.64
45040;BME280;30778;53.574;7.770;2023-03-11T02:44:07;100395.56;;;-1.97;48.28
45040;BME280;30778;53.574;7.770;2023-03-11T02:46:36;100391.28;;;-1.92;47.99
45040;BME280;30778;53.574;7.770;2023-03-11T02:49:03;100398.16;;;-1.91;47.97
45040;BME280;30778;53.574;7.770;2023-03-11T02:51:29;100405.88;;;-1.77;47.65
45040;BME280;30778;53.574;7.770;2023-03-11T02:53:58;100400.59;;;-2.15;48.41
45040;BME280;30778;53.574;7.770;2023-03-11T02:56:27;100404.94;;;-1.91;47.70
45040;BME280;30778;53.574;7.770;2023-03-11T02:58:53;100405.00;;;-1.81;47.10
45040;BME280;30778;53.574;7.770;2023-03-11T03:01:19;100409.22;;;-1.93;47.44
45040;BME280;30778;53.574;7.770;2023-03-11T03:03:47;100406.63;;;-1.98;47.24
45040;BME280;30778;53.574;7.770;2023-03-11T03:06:12;100424.63;;;-1.84;47.22
45040;BME280;30778;53.574;7.770;2023-03-11T03:08:38;100417.81;;;-1.79;47.33
45040;BME280;30778;53.574;7.770;2023-03-11T03:11:03;100423.75;;;-1.88;47.91
45040;BME280;30778;53.574;7.770;2023-03-11T03:13:29;100440.75;;;-2.05;48.64
45040;BME280;30778;53.574;7.770;2023-03-11T03:15:57;100437.44;;;-1.83;48.08
45040;BME280;30778;53.574;7.770;2023-03-11T03:18:23;100443.47;;;-1.77;48.17
45040;BME280;30778;53.574;7.770;2023-03-11T03:20:49;100444.22;;;-1.89;48.60
45040;BME280;30778;53.574;7.770;2023-03-11T03:23:16;100451.09;;;-1.84;48.85
45040;BME280;30778;53.574;7.770;2023-03-11T03:25:43;100445.97;;;-1.88;48.71
45040;BME280;30778;53.574;7.770;2023-03-11T03:28:11;100444.34;;;-1.60;47.87
45040;BME280;30778;53.574;7.770;2023-03-11T03:30:39;100456.25;;;-1.74;47.73
45040;BME280;30778;53.574;7.770;2023-03-11T03:33:05;100453.78;;;-1.57;47.57
45040;BME280;30778;53.574;7.770;2023-03-11T03:35:31;100454.59;;;-1.63;47.82
45040;BME280;30778;53.574;7.770;2023-03-11T03:38:12;100464.03;;;-1.54;47.81
45040;BME280;30778;53.574;7.770;2023-03-11T03:40:38;100466.56;;;-1.56;48.24
45040;BME280;30778;53.574;7.770;2023-03-11T03:43:05;100465.75;;;-1.44;47.59
45040;BME280;30778;53.574;7.770;2023-03-11T03:45:32;100471.75;;;-1.41;47.73
45040;BME280;30778;53.574;7.770;2023-03-11T03:47:58;100472.59;;;-1.48;47.96
45040;BME280;30778;53.574;7.770;2023-03-11T03:50:25;100483.75;;;-1.33;47.00
45040;BME280;30778;53.574;7.770;2023-03-11T03:52:52;100476.72;;;-1.88;47.10
45040;BME280;30778;53.574;7.770;2023-03-11T03:55:20;100480.25;;;-1.57;47.33
45040;BME280;30778;53.574;7.770;2023-03-11T03:57:46;100484.56;;;-1.45;46.68
45040;BME280;30778;53.574;7.770;2023-03-11T04:00:12;100488.91;;;-1.18;46.85
45040;BME280;30778;53.574;7.770;2023-03-11T04:02:43;100488.06;;;-1.14;46.57
45040;BME280;30778;53.574;7.770;2023-03-11T04:05:18;100490.59;;;-1.32;46.66
45040;BME280;30778;53.574;7.770;2023-03-11T04:07:45;100494.00;;;-1.29;46.84
45040;BME280;30778;53.574;7.770;2023-03-11T04:10:12;100499.13;;;-1.36;46.85
45040;BME280;30778;53.574;7.770;2023-03-11T04:12:39;100501.72;;;-1.30;47.20
45040;BME280;30778;53.574;7.770;2023-03-11T04:15:06;100509.41;;;-1.24;46.88
45040;BME280;30778;53.574;7.770;2023-03-11T04:17:33;100505.94;;;-1.35;47.23
45040;BME280;30778;53.574;7.770;2023-03-11T04:20:00;100516.19;;;-1.45;47.36
45040;BME280;30778;53.574;7.770;2023-03-11T04:22:26;100517.88;;;-1.48;47.00
45040;BME280;30778;53.574;7.770;2023-03-11T04:24:51;100519.63;;;-1.36;46.81
45040;BME280;30778;53.574;7.770;2023-03-11T04:27:17;100526.44;;;-1.48;46.51
45040;BME280;30778;53.574;7.770;2023-03-11T04:29:43;100530.75;;;-1.36;46.29
45040;BME280;30778;53.574;7.770;2023-03-11T04:32:09;100533.28;;;-1.38;46.28
45040;BME280;30778;53.574;7.770;2023-03-11T04:34:35;100533.22;;;-1.59;46.39
45040;BME280;30778;53.574;7.770;2023-03-11T04:37:01;100536.72;;;-1.35;45.99
45040;BME280;30778;53.574;7.770;2023-03-11T04:39:31;100536.69;;;-1.48;45.92
45040;BME280;30778;53.574;7.770;2023-03-11T04:41:56;100536.72;;;-1.39;45.00
45040;BME280;30778;53.574;7.770;2023-03-11T04:44:24;100536.72;;;-1.42;44.89
45040;BME280;30778;53.574;7.770;2023-03-11T04:46:50;100537.50;;;-1.52;44.71
45040;BME280;30778;53.574;7.770;2023-03-11T04:49:16;100540.03;;;-1.58;44.50
45040;BME280;30778;53.574;7.770;2023-03-11T04:51:42;100545.91;;;-1.84;44.86
45040;BME280;30778;53.574;7.770;2023-03-11T04:54:09;100545.03;;;-1.89;45.16
45040;BME280;30778;53.574;7.770;2023-03-11T04:56:34;100545.91;;;-1.81;44.76
45040;BME280;30778;53.574;7.770;2023-03-11T04:59:00;100554.31;;;-2.03;45.09
45040;BME280;30778;53.574;7.770;2023-03-11T05:01:28;100552.72;;;-1.89;44.58
45040;BME280;30778;53.574;7.770;2023-03-11T05:03:57;100561.16;;;-2.01;45.25
45040;BME280;30778;53.574;7.770;2023-03-11T05:06:22;100561.22;;;-1.90;44.94
45040;BME280;30778;53.574;7.770;2023-03-11T05:08:48;100563.72;;;-1.99;45.20
45040;BME280;30778;53.574;7.770;2023-03-11T05:11:13;100567.88;;;-2.15;45.23
45040;BME280;30778;53.574;7.770;2023-03-11T05:13:41;100561.88;;;-2.18;45.49
45040;BME280;30778;53.574;7.770;2023-03-11T05:16:06;100571.25;;;-2.19;45.65
45040;BME280;30778;53.574;7.770;2023-03-11T05:18:32;100573.84;;;-2.17;45.53
45040;BME280;30778;53.574;7.770;2023-03-11T05:20:58;100582.44;;;-2.11;45.38
45040;BME280;30778;53.574;7.770;2023-03-11T05:23:27;100586.69;;;-2.13;46.13
45040;BME280;30778;53.574;7.770;2023-03-11T05:25:52;100582.34;;;-2.18;45.68
45040;BME280;30778;53.574;7.770;2023-03-11T05:28:18;100590.00;;;-2.23;45.51
45040;BME280;30778;53.574;7.770;2023-03-11T05:30:48;100587.41;;;-2.28;45.67
45040;BME280;30778;53.574;7.770;2023-03-11T05:33:15;100589.88;;;-2.37;45.98
45040;BME280;30778;53.574;7.770;2023-03-11T05:35:40;100593.25;;;-2.43;46.78
45040;BME280;30778;53.574;7.770;2023-03-11T05:38:08;100591.53;;;-2.44;46.84
45040;BME280;30778;53.574;7.770;2023-03-11T05:40:33;100590.63;;;-2.47;46.55
45040;BME280;30778;53.574;7.770;2023-03-11T05:42:59;100598.31;;;-2.49;46.86
45040;BME280;30778;53.574;7.770;2023-03-11T05:45:27;100602.47;;;-2.61;47.10
45040;BME280;30778;53.574;7.770;2023-03-11T05:47:55;100603.44;;;-2.47;46.98
45040;BME280;30778;53.574;7.770;2023-03-11T05:50:20;100600.97;;;-2.38;46.25
45040;BME280;30778;53.574;7.770;2023-03-11T05:52:47;100602.63;;;-2.43;46.63
45040;BME280;30778;53.574;7.770;2023-03-11T05:55:13;100612.00;;;-2.45;46.38
45040;BME280;30778;53.574;7.770;2023-03-11T05:57:40;100612.78;;;-2.49;46.42
45040;BME280;30778;53.574;7.770;2023-03-11T06:00:07;100620.50;;;-2.48;46.63
45040;BME280;30778;53.574;7.770;2023-03-11T06:02:39;100623.06;;;-2.48;47.01
45040;BME280;30778;53.574;7.770;2023-03-11T06:05:08;100624.78;;;-2.48;46.90
45040;BME280;30778;53.574;7.770;2023-03-11T06:07:36;100632.41;;;-2.50;47.53
45040;BME280;30778;53.574;7.770;2023-03-11T06:10:03;100632.47;;;-2.47;47.14
45040;BME280;30778;53.574;7.770;2023-03-11T06:12:33;100634.19;;;-2.44;46.96
45040;BME280;30778;53.574;7.770;2023-03-11T06:15:14;100642.75;;;-2.40;47.07
45040;BME280;30778;53.574;7.770;2023-03-11T06:17:41;100645.34;;;-2.36;47.28
45040;BME280;30778;53.574;7.770;2023-03-11T06:20:08;100648.03;;;-2.27;47.31
45040;BME280;30778;53.574;7.770;2023-03-11T06:22:34;100653.31;;;-2.08;46.82
45040;BME280;30778;53.574;7.770;2023-03-11T06:25:00;100654.16;;;-2.06;46.87
45040;BME280;30778;53.574;7.770;2023-03-11T06:27:26;100664.47;;;-2.02;46.97
45040;BME280;30778;53.574;7.770;2023-03-11T06:29:53;100661.03;;;-2.02;46.61
45040;BME280;30778;53.574;7.770;2023-03-11T06:32:20;100664.41;;;-2.05;47.06
45040;BME280;30778;53.574;7.770;2023-03-11T06:34:49;100665.31;;;-1.99;47.08
45040;BME280;30778;53.574;7.770;2023-03-11T06:37:15;100664.63;;;-1.82;47.03
45040;BME280;30778;53.574;7.770;2023-03-11T06:39:41;100659.53;;;-1.74;46.76
45040;BME280;30778;53.574;7.770;2023-03-11T06:42:09;100663.84;;;-1.67;46.92
45040;BME280;30778;53.574;7.770;2023-03-11T06:44:35;100672.44;;;-1.66;47.21
45040;BME280;30778;53.574;7.770;2023-03-11T06:47:02;100677.00;;;-1.16;46.83
45040;BME280;30778;53.574;7.770;2023-03-11T06:49:28;100673.09;;;-0.08;45.14
45040;BME280;30778;53.574;7.770;2023-03-11T06:51:53;100673.84;;;0.88;42.81
45040;BME280;30778;53.574;7.770;2023-03-11T06:54:19;100678.38;;;2.08;41.63
45040;BME280;30778;53.574;7.770;2023-03-11T06:56:44;100679.25;;;3.66;37.29
45040;BME280;30778;53.574;7.770;2023-03-11T06:59:13;100685.91;;;5.30;34.60
45040;BME280;30778;53.574;7.770;2023-03-11T07:01:40;100679.41;;;6.24;33.66
45040;BME280;30778;53.574;7.770;2023-03-11T07:04:09;100688.06;;;7.51;32.25
45040;BME280;30778;53.574;7.770;2023-03-11T07:06:37;100689.38;;;8.21;28.21
45040;BME280;30778;53.574;7.770;2023-03-11T07:09:11;100688.53;;;9.21;28.80
45040;BME280;30778;53.574;7.770;2023-03-11T07:11:41;100695.28;;;9.94;26.64
45040;BME280;30778;53.574;7.770;2023-03-11T07:14:11;100693.47;;;10.59;26.12
45040;BME280;30778;53.574;7.770;2023-03-11T07:16:40;100693.84;;;10.91;26.54
45040;BME280;30778;53.574;7.770;2023-03-11T07:19:14;100694.00;;;11.64;25.71
45040;BME280;30778;53.574;7.770;2023-03-11T07:21:40;100702.09;;;12.67;24.51
45040;BME280;30778;53.574;7.770;2023-03-11T07:24:06;100715.38;;;12.97;22.41
45040;BME280;30778;53.574;7.770;2023-03-11T07:26:33;100707.84;;;13.56;22.23
45040;BME280;30778;53.574;7.770;2023-03-11T07:28:59;100718.34;;;12.39;23.22
45040;BME280;30778;53.574;7.770;2023-03-11T07:31:27;100726.03;;;12.07;23.90
45040;BME280;30778;53.574;7.770;2023-03-11T07:33:53;100729.84;;;12.71;22.87
45040;BME280;30778;53.574;7.770;2023-03-11T07:36:22;100724.31;;;13.76;21.82
45040;BME280;30778;53.574;7.770;2023-03-11T07:38:54;100729.16;;;14.13;23.24
45040;BME280;30778;53.574;7.770;2023-03-11T07:41:20;100733.38;;;12.35;22.32
45040;BME280;30778;53.574;7.770;2023-03-11T07:43:45;100738.41;;;10.68;24.71
45040;BME280;30778;53.574;7.770;2023-03-11T07:46:14;100737.31;;;11.90;24.64
45040;BME280;30778;53.574;7.770;2023-03-11T07:48:43;100745.63;;;12.87;23.27
45040;BME280;30778;53.574;7.770;2023-03-11T07:51:12;100747.38;;;13.70;21.64
45040;BME280;30778;53.574;7.770;2023-03-11T07:53:38;100743.41;;;14.41;21.19
45040;BME280;30778;53.574;7.770;2023-03-11T07:56:06;100758.53;;;13.74;21.71
45040;BME280;30778;53.574;7.770;2023-03-11T07:58:31;100758.59;;;14.81;21.51
45040;BME280;30778;53.574;7.770;2023-03-11T08:01:05;100761.19;;;16.23;20.22
45040;BME280;30778;53.574;7.770;2023-03-11T08:03:32;100759.72;;;16.71;19.00
45040;BME280;30778;53.574;7.770;2023-03-11T08:05:57;100758.63;;;15.94;20.13
45040;BME280;30778;53.574;7.770;2023-03-11T08:08:23;100775.22;;;13.73;20.48
45040;BME280;30778;53.574;7.770;2023-03-11T08:10:48;100782.75;;;14.73;21.68
45040;BME280;30778;53.574;7.770;2023-03-11T08:13:14;100776.38;;;15.06;21.41
45040;BME280;30778;53.574;7.770;2023-03-11T08:15:40;100778.50;;;16.67;19.63
45040;BME280;30778;53.574;7.770;2023-03-11T08:18:05;100784.91;;;16.50;18.83
45040;BME280;30778;53.574;7.770;2023-03-11T08:20:31;100781.81;;;16.83;18.03
45040;BME280;30778;53.574;7.770;2023-03-11T08:22:56;100781.53;;;15.37;19.34
45040;BME280;30778;53.574;7.770;2023-03-11T08:25:21;100786.97;;;14.75;19.69
45040;BME280;30778;53.574;7.770;2023-03-11T08:27:47;100793.69;;;15.10;21.96
45040;BME280;30778;53.574;7.770;2023-03-11T08:30:13;100791.44;;;15.75;20.39
45040;BME280;30778;53.574;7.770;2023-03-11T08:32:38;100785.66;;;15.97;19.53
45040;BME280;30778;53.574;7.770;2023-03-11T08:35:04;100790.81;;;14.24;20.47
45040;BME280;30778;53.574;7.770;2023-03-11T08:37:30;100791.75;;;15.28;20.88
45040;BME280;30778;53.574;7.770;2023-03-11T08:39:56;100803.16;;;14.53;21.15
45040;BME280;30778;53.574;7.770;2023-03-11T08:42:21;100804.22;;;14.65;21.67
45040;BME280;30778;53.574;7.770;2023-03-11T08:44:47;100799.84;;;14.34;21.63
45040;BME280;30778;53.574;7.770;2023-03-11T08:47:12;100809.13;;;14.71;21.27
45040;BME280;30778;53.574;7.770;2023-03-11T08:49:38;100804.25;;;14.33;21.52
45040;BME280;30778;53.574;7.770;2023-03-11T08:52:04;100811.50;;;13.49;23.15
45040;BME280;30778;53.574;7.770;2023-03-11T08:54:29;100811.56;;;13.65;21.90
45040;BME280;30778;53.574;7.770;2023-03-11T08:56:55;100818.38;;;13.51;23.80
45040;BME280;30778;53.574;7.770;2023-03-11T08:59:21;100816.75;;;13.16;22.81
45040;BME280;30778;53.574;7.770;2023-03-11T09:01:47;100817.25;;;12.35;24.27
45040;BME280;30778;53.574;7.770;2023-03-11T09:04:12;100816.28;;;12.19;24.51
45040;BME280;30778;53.574;7.770;2023-03-11T09:06:42;100817.03;;;11.64;24.94
45040;BME280;30778;53.574;7.770;2023-03-11T09:09:10;100830.94;;;10.63;26.54
45040;BME280;30778;53.574;7.770;2023-03-11T09:11:37;100826.16;;;9.13;27.17
45040;BME280;30778;53.574;7.770;2023-03-11T09:14:03;100829.56;;;9.15;28.68
45040;BME280;30778;53.574;7.770;2023-03-11T09:16:28;100831.88;;;8.97;28.11
45040;BME280;30778;53.574;7.770;2023-03-11T09:18:54;100829.56;;;9.87;27.55
45040;BME280;30778;53.574;7.770;2023-03-11T09:21:19;100830.06;;;8.46;28.75
45040;BME280;30778;53.574;7.770;2023-03-11T09:23:45;100835.66;;;8.06;29.78
45040;BME280;30778;53.574;7.770;2023-03-11T09:26:12;100832.16;;;8.35;29.85
45040;BME280;30778;53.574;7.770;2023-03-11T09:28:38;100833.28;;;7.98;29.59
45040;BME280;30778;53.574;7.770;2023-03-11T09:31:04;100830.69;;;8.81;29.04
45040;BME280;30778;53.574;7.770;2023-03-11T09:33:29;100834.91;;;8.57;28.23
45040;BME280;30778;53.574;7.770;2023-03-11T09:35:57;100837.78;;;8.76;29.63
45040;BME280;30778;53.574;7.770;2023-03-11T09:38:23;100838.03;;;9.70;28.36
45040;BME280;30778;53.574;7.770;2023-03-11T09:41:01;100839.94;;;9.16;28.44
45040;BME280;30778;53.574;7.770;2023-03-11T09:44:01;100839.06;;;9.65;27.93
45040;BME280;30778;53.574;7.770;2023-03-11T09:52:06;100846.84;;;8.64;28.44
45040;BME280;30778;53.574;7.770;2023-03-11T09:54:37;100844.69;;;9.54;29.12
45040;BME280;30778;53.574;7.770;2023-03-11T09:57:04;100838.22;;;9.64;28.64
45040;BME280;30778;53.574;7.770;2023-03-11T09:59:33;100833.41;;;10.24;28.42
45040;BME280;30778;53.574;7.770;2023-03-11T10:02:00;100834.13;;;9.08;28.28
45040;BME280;30778;53.574;7.770;2023-03-11T10:04:40;100838.66;;;9.52;28.54
45040;BME280;30778;53.574;7.770;2023-03-11T10:07:16;100837.38;;;8.62;28.69
45040;BME280;30778;53.574;7.770;2023-03-11T10:12:19;100839.28;;;7.05;30.22
45040;BME280;30778;53.574;7.770;2023-03-11T10:20:21;100834.97;;;9.83;28.13
45040;BME280;30778;53.574;7.770;2023-03-11T10:25:57;100843.19;;;8.70;30.45
45040;BME280;30778;53.574;7.770;2023-03-11T10:28:35;100839.84;;;8.93;28.71
45040;BME280;30778;53.574;7.770;2023-03-11T10:31:27;100841.78;;;9.13;29.01
45040;BME280;30778;53.574;7.770;2023-03-11T10:34:02;100843.16;;;8.15;28.69
45040;BME280;30778;53.574;7.770;2023-03-11T10:36:36;100848.59;;;8.92;27.06
45040;BME280;30778;53.574;7.770;2023-03-11T10:39:04;100845.03;;;8.94;28.04
45040;BME280;30778;53.574;7.770;2023-03-11T10:42:03;100851.66;;;8.22;28.44
45040;BME280;30778;53.574;7.770;2023-03-11T10:44:31;100842.94;;;9.04;26.71
45040;BME280;30778;53.574;7.770;2023-03-11T10:46:58;100838.94;;;8.67;26.36
45040;BME280;30778;53.574;7.770;2023-03-11T10:49:24;100839.81;;;8.94;26.64
45040;BME280;30778;53.574;7.770;2023-03-11T10:51:51;100843.13;;;8.17;27.70
45040;BME280;30778;53.574;7.770;2023-03-11T10:54:29;100839.03;;;8.09;27.25
45040;BME280;30778;53.574;7.770;2023-03-11T10:57:04;100842.84;;;9.07;26.56
45040;BME280;30778;53.574;7.770;2023-03-11T10:59:33;100834.69;;;9.65;25.83
45040;BME280;30778;53.574;7.770;2023-03-11T11:02:27;100840.63;;;8.96;26.91
45040;BME280;30778;53.574;7.770;2023-03-11T11:07:40;100845.41;;;9.09;27.54
45040;BME280;30778;53.574;7.770;2023-03-11T11:10:21;100840.53;;;8.98;27.17
45040;BME280;30778;53.574;7.770;2023-03-11T11:12:59;100845.56;;;8.49;27.85
45040;BME280;30778;53.574;7.770;2023-03-11T11:15:28;100845.03;;;8.11;27.63
45040;BME280;30778;53.574;7.770;2023-03-11T11:17:57;100840.50;;;9.00;27.60
45040;BME280;30778;53.574;7.770;2023-03-11T11:20:25;100831.66;;;8.79;27.29
45040;BME280;30778;53.574;7.770;2023-03-11T11:22:55;100836.69;;;8.56;27.36
45040;BME280;30778;53.574;7.770;2023-03-11T11:25:26;100839.63;;;8.74;27.30
45040;BME280;30778;53.574;7.770;2023-03-11T11:27:57;100836.91;;;9.04;26.83
45040;BME280;30778;53.574;7.770;2023-03-11T11:30:24;100839.72;;;8.71;27.05
45040;BME280;30778;53.574;7.770;2023-03-11T11:32:50;100836.75;;;8.53;26.97
45040;BME280;30778;53.574;7.770;2023-03-11T11:35:19;100835.44;;;8.40;27.81
45040;BME280;30778;53.574;7.770;2023-03-11T11:37:48;100834.41;;;7.89;27.44
45040;BME280;30778;53.574;7.770;2023-03-11T11:42:46;100843.13;;;6.54;30.33
45040;BME280;30778;53.574;7.770;2023-03-11T11:45:17;100841.59;;;6.81;30.04
45040;BME280;30778;53.574;7.770;2023-03-11T11:47:49;100831.41;;;6.38;30.48
45040;BME280;30778;53.574;7.770;2023-03-11T11:50:31;100842.03;;;6.99;30.41
45040;BME280;30778;53.574;7.770;2023-03-11T11:53:04;100845.94;;;6.46;31.14
45040;BME280;30778;53.574;7.770;2023-03-11T11:55:34;100851.56;;;6.25;32.52
45040;BME280;30778;53.574;7.770;2023-03-11T11:58:10;100852.88;;;5.15;33.90
45040;BME280;30778;53.574;7.770;2023-03-11T12:00:51;100857.88;;;5.26;33.93
45040;BME280;30778;53.574;7.770;2023-03-11T12:06:00;100848.22;;;5.79;33.89
45040;BME280;30778;53.574;7.770;2023-03-11T12:11:03;100845.94;;;6.46;31.88
45040;BME280;30778;53.574;7.770;2023-03-11T12:16:22;100839.81;;;8.40;31.13
45040;BME280;30778;53.574;7.770;2023-03-11T12:24:44;100838.88;;;6.52;32.72
45040;BME280;30778;53.574;7.770;2023-03-11T12:27:24;100838.19;;;6.79;32.03
45040;BME280;30778;53.574;7.770;2023-03-11T12:29:55;100841.19;;;6.25;33.03
45040;BME280;30778;53.574;7.770;2023-03-11T12:32:33;100842.09;;;7.63;32.03
45040;BME280;30778;53.574;7.770;2023-03-11T12:35:09;100836.97;;;8.75;29.63
45040;BME280;30778;53.574;7.770;2023-03-11T12:37:39;100834.03;;;8.85;29.21
45040;BME280;30778;53.574;7.770;2023-03-11T12:46:01;100835.16;;;8.49;31.32
45040;BME280;30778;53.574;7.770;2023-03-11T12:48:35;100836.00;;;7.93;28.78
45040;BME280;30778;53.574;7.770;2023-03-11T12:51:05;100842.66;;;7.08;29.94
45040;BME280;30778;53.574;7.770;2023-03-11T12:53:41;100842.31;;;7.22;31.62
45040;BME280;30778;53.574;7.770;2023-03-11T13:04:10;100845.41;;;7.68;31.47
45040;BME280;30778;53.574;7.770;2023-03-11T13:07:03;100850.69;;;6.65;30.62
45040;BME280;30778;53.574;7.770;2023-03-11T13:09:32;100852.47;;;5.82;32.33
45040;BME280;30778;53.574;7.770;2023-03-11T13:11:58;100844.56;;;7.02;30.81
45040;BME280;30778;53.574;7.770;2023-03-11T13:14:31;100843.91;;;6.94;31.38
45040;BME280;30778;53.574;7.770;2023-03-11T13:17:26;100850.66;;;8.26;30.46
45040;BME280;30778;53.574;7.770;2023-03-11T13:19:56;100847.00;;;8.03;29.98
45040;BME280;30778;53.574;7.770;2023-03-11T13:25:36;100857.09;;;6.09;32.75
45040;BME280;30778;53.574;7.770;2023-03-11T13:31:40;100857.44;;;5.49;32.64
45040;BME280;30778;53.574;7.770;2023-03-11T13:39:38;100859.97;;;5.52;33.84
45040;BME280;30778;53.574;7.770;2023-03-11T13:44:50;100874.53;;;4.55;34.73
45040;BME280;30778;53.574;7.770;2023-03-11T13:47:17;100859.63;;;4.71;34.72
45040;BME280;30778;53.574;7.770;2023-03-11T13:50:07;100849.88;;;4.89;35.33
45040;BME280;30778;53.574;7.770;2023-03-11T13:52:43;100868.84;;;5.39;34.86
45040;BME280;30778;53.574;7.770;2023-03-11T13:55:20;100856.78;;;5.38;34.32
45040;BME280;30778;53.574;7.770;2023-03-11T13:57:54;100866.09;;;5.93;34.16
45040;BME280;30778;53.574;7.770;2023-03-11T14:00:22;100862.44;;;6.02;33.04
45040;BME280;30778;53.574;7.770;2023-03-11T14:03:00;100854.91;;;4.40;35.39
45040;BME280;30778;53.574;7.770;2023-03-11T14:05:32;100863.16;;;5.20;34.89